Terminal Aerodrome Forecast
Issued by NWS

Home | Current Version | Previous Version | Text Only | Print | Product List | Glossary On
Versions: 1 2 3 4 5 6 7 8 9 10 11 12
000
FTUS44 KTSA 291700
TAFMLC
TAF
KMLC 291720Z 2918/3018 19007KT P6SM BKN100
      TEMPO 2919/2923 2SM +TSRA BKN050CB
     FM300600 19003KT P6SM SCT250=

USA.gov is the U.S. government's official web portal to all federal, state and local government web resources and services.